Ashland, OR

6:33 PM PDT on August 28, 2015 (GMT -0700)
NonFedAWOS | | Change Station
CLOSE
Current Station
Personal Weather Station
Location: Ashland, OR
Elevation: 1884 ft
Nearby Weather Stations

Elev 1884 ft 42.19 °N, 122.66 °W | Updated 18 minutes ago

Partly Cloudy
Partly Cloudy
81 °F
Feels Like 81 °F
N
0
Wind Variable Wind from North
Gusts 0.0 mph

Today
High -- | Low -- °F
--% Chance of Precip.
Yesterday
High -- | Low -- °F
Precip. -- in
6:31 AM 7:51 PM
Waxing Gibbous, 99% visible
Pressure 29.71 in
Visibility 3.0 miles
Clouds Clear
Heat Index 81 °F
Dew Point 54 °F
Humidity 39%
Rainfall in
Snow Depth Not available.
UV 2 out of 12
Pollen 5.40 out of 12
Air Quality Not available.
Flu Activity Not available.
METAR KMFR 290053Z 30009KT 3SM HZ FU CLR 31/09 A2975 RMK AO2 SLP060 T03110089
Pressure 29.71 in
Visibility 3.0 miles
Clouds Clear
Heat Index 81 °F
Dew Point 54 °F
Humidity 39%
Rainfall in
Snow Depth Not available.
UV 2 out of 12
Pollen 5.40 out of 12
Air Quality Not available.
Flu Activity Not available.
METAR KMFR 290053Z 30009KT 3SM HZ FU CLR 31/09 A2975 RMK AO2 SLP060 T03110089

10-Day Weather Forecast

×

Almanac

Astronomy

Aug. 28, 2015 Rise Set
Actual Time
Civil Twilight
Nautical Twilight
Astronomical Twilight
Moon
Length of Visible Light
Length of Day
Tomorrow will be .
, % of the Moon is Illuminated

Today's Extremes

State Highs State Lows

Community

WunderPhotos

Upload Photos

1,850,566 photos uploaded!

WunderBlogs® & News

Nearby

Air Quality

  Air Quality AQ Index Pollutant
Not available.

Snow Depth

Station Depth Elevation

Earthquake Activity

City Distance Mag. Time & Date
Minimum magnitude displayed is 2.5.

Coastal Water Temperatures

Place Temperature

Stations

Nearby Weather Stations

Station Location Temp. Windchill Dew Point Humidity Wind Precip. Elev Updated Type